Time;durP1;ratioP1;P1;durP2;ratioP2;P2;SDS_P1;SDS_P2;PMS_P1;PMS_P2;Temp;Humidity;BMP_temperature;BMP_pressure;BME280_temperature;BME280_humidity;BME280_pressure;Samples;Min_cycle;Max_cycle;Signal;HPM_P1;HPM_P2
2022/07/12 00:00:13;;;;;;;2.17;1.65;;;;;;;11.90;100.00;102339.59;1031388;28;20308;-82
2022/07/12 00:00:44;;;;;;;3.97;1.33;;;;;;;11.99;100.00;102333.09;1031130;28;20313;-82
2022/07/12 00:01:18;;;;;;;4.00;1.20;;;;;;;12.16;100.00;102333.72;1031616;28;20281;-82
2022/07/12 00:01:50;;;;;;;2.85;1.10;;;;;;;12.32;100.00;102332.59;1026392;28;20795;-82
2022/07/12 00:02:21;;;;;;;0.90;0.90;;;;;;;12.13;100.00;102334.09;1027189;28;20310;-82
2022/07/12 00:02:53;;;;;;;9.13;1.80;;;;;;;12.09;100.00;102340.00;1027762;28;20792;-82
2022/07/12 00:03:25;;;;;;;18.42;1.45;;;;;;;12.02;100.00;102338.06;1023026;28;20318;-82
2022/07/12 00:03:57;;;;;;;25.83;2.63;;;;;;;11.87;100.00;102334.63;1026846;28;20824;-82
2022/07/12 00:04:28;;;;;;;11.07;1.20;;;;;;;11.87;100.00;102331.97;1027491;28;20290;-81
2022/07/12 00:05:00;;;;;;;19.45;1.42;;;;;;;11.82;100.00;102325.53;1026049;28;20298;-82
2022/07/12 00:05:32;;;;;;;3.75;1.10;;;;;;;11.69;100.00;102336.84;1030525;28;20324;-82
2022/07/12 00:06:04;;;;;;;3.28;1.00;;;;;;;11.64;100.00;102334.72;1034065;28;20305;-83
2022/07/12 00:06:35;;;;;;;1.00;1.00;;;;;;;11.87;100.00;102329.28;1033490;28;20305;-83
2022/07/12 00:07:07;;;;;;;13.00;1.70;;;;;;;11.80;100.00;102330.22;1035170;28;20363;-82
2022/07/12 00:07:39;;;;;;;19.83;1.98;;;;;;;11.71;100.00;102340.13;1033667;28;20297;-82
2022/07/12 00:08:10;;;;;;;2.92;1.08;;;;;;;11.80;100.00;102328.38;1035259;28;20304;-83
2022/07/12 00:08:42;;;;;;;5.25;1.60;;;;;;;11.81;100.00;102337.22;1035449;28;20311;-82
2022/07/12 00:09:14;;;;;;;1.30;1.20;;;;;;;11.84;100.00;102335.00;1031346;28;20297;-82
2022/07/12 00:09:46;;;;;;;1.55;1.13;;;;;;;11.86;100.00;102327.63;1027511;28;20751;-82
2022/07/12 00:10:17;;;;;;;1.35;1.13;;;;;;;11.84;100.00;102335.00;1027527;28;20306;-82
2022/07/12 00:10:49;;;;;;;4.00;1.55;;;;;;;11.74;100.00;102334.41;1031890;28;20659;-82
2022/07/12 00:11:20;;;;;;;4.25;1.35;;;;;;;11.77;100.00;102334.88;1031546;28;20336;-82
2022/07/12 00:11:52;;;;;;;2.63;1.38;;;;;;;11.82;100.00;102330.88;1035436;28;20312;-83
2022/07/12 00:12:24;;;;;;;3.25;1.45;;;;;;;11.72;100.00;102325.78;1030657;28;20317;-83
2022/07/12 00:12:55;;;;;;;5.18;1.70;;;;;;;11.72;100.00;102333.78;1023430;28;20374;-83
2022/07/12 00:13:27;;;;;;;2.30;1.20;;;;;;;11.84;100.00;102328.84;1027080;28;20308;-83
2022/07/12 00:13:58;;;;;;;1.30;1.10;;;;;;;11.74;100.00;102334.41;1027652;28;20349;-82
2022/07/12 00:14:30;;;;;;;9.43;1.90;;;;;;;11.67;100.00;102330.84;1031608;28;20317;-83
2022/07/12 00:15:02;;;;;;;8.98;1.98;;;;;;;11.64;100.00;102328.56;1033169;28;20297;-83
2022/07/12 00:15:34;;;;;;;1.40;1.30;;;;;;;11.57;100.00;102322.31;1035129;28;20308;-82
2022/07/12 00:16:06;;;;;;;2.20;1.05;;;;;;;11.53;100.00;102326.38;1035044;28;20320;-82
2022/07/12 00:16:38;;;;;;;127.80;10.90;;;;;;;11.46;100.00;102329.78;1032737;28;20293;-82
2022/07/12 00:17:10;;;;;;;2.83;1.65;;;;;;;11.58;100.00;102323.97;1035372;28;20803;-82
2022/07/12 00:17:42;;;;;;;1.15;1.05;;;;;;;11.62;100.00;102325.25;1035522;28;20308;-83
2022/07/12 00:18:13;;;;;;;2.03;1.48;;;;;;;11.58;100.00;102322.13;1035423;28;20336;-82
2022/07/12 00:18:45;;;;;;;1.20;1.20;;;;;;;11.55;100.00;102327.03;1030657;28;20303;-82
2022/07/12 00:19:17;;;;;;;0.95;0.95;;;;;;;11.61;100.00;102326.28;1027306;28;20317;-82
2022/07/12 00:19:49;;;;;;;1.85;1.20;;;;;;;11.53;100.00;102332.53;1027343;28;20310;-82
2022/07/12 00:20:20;;;;;;;1.63;1.30;;;;;;;11.57;100.00;102325.00;1028086;28;20051;-82
2022/07/12 00:20:52;;;;;;;1.80;1.70;;;;;;;11.70;100.00;102330.47;1031219;28;20656;-82
2022/07/12 00:21:24;;;;;;;1.75;1.38;;;;;;;11.71;100.00;102326.78;1031387;28;20308;-81
2022/07/12 00:21:56;;;;;;;1.83;1.65;;;;;;;11.75;100.00;102326.22;1035260;28;20829;-82
2022/07/12 00:22:28;;;;;;;2.85;2.00;;;;;;;11.94;100.00;102324.84;1031103;28;20360;-83
2022/07/12 00:23:00;;;;;;;5.95;2.88;;;;;;;12.12;100.00;102328.94;1031518;28;20307;-82
2022/07/12 00:23:31;;;;;;;8.93;3.17;;;;;;;12.18;100.00;102326.31;1031022;28;20305;-82
2022/07/12 00:24:03;;;;;;;2.65;2.33;;;;;;;12.19;100.00;102321.81;1031726;28;20342;-82
2022/07/12 00:24:34;;;;;;;3.53;3.22;;;;;;;12.17;100.00;102329.19;1031598;28;20660;-82
2022/07/12 00:25:06;;;;;;;6.25;2.88;;;;;;;11.97;100.00;102326.31;1031049;28;20542;-82
2022/07/12 00:25:39;;;;;;;2.28;2.17;;;;;;;11.86;100.00;102322.28;1031147;28;20313;-82
2022/07/12 00:26:10;;;;;;;2.92;2.72;;;;;;;11.83;100.00;102328.00;1032281;28;20309;-82
2022/07/12 00:26:42;;;;;;;2.95;2.83;;;;;;;11.94;100.00;102326.69;1029246;28;20826;-82
2022/07/12 00:27:13;;;;;;;3.17;2.88;;;;;;;11.95;100.00;102323.00;1030338;28;20309;-82
2022/07/12 00:27:45;;;;;;;14.80;3.80;;;;;;;11.72;100.00;102323.94;1026966;28;20696;-81
2022/07/12 00:28:16;;;;;;;22.80;3.83;;;;;;;11.66;100.00;102321.19;1027912;28;20309;-82
2022/07/12 00:28:48;;;;;;;2.88;2.67;;;;;;;11.62;100.00;102314.56;1031715;28;20818;-82
2022/07/12 00:29:20;;;;;;;2.78;2.58;;;;;;;11.72;100.00;102321.25;1034736;28;21322;-82
2022/07/12 00:29:51;;;;;;;3.13;2.83;;;;;;;11.91;100.00;102319.88;1035556;28;20296;-82
2022/07/12 00:30:23;;;;;;;2.35;2.20;;;;;;;12.00;100.00;102313.38;1035285;28;20319;-82
2022/07/12 00:30:55;;;;;;;17.42;3.22;;;;;;;12.00;100.00;102318.72;1035215;28;20324;-82
2022/07/12 00:31:26;;;;;;;28.23;3.95;;;;;;;11.84;100.00;102308.31;1031538;28;20625;-82
2022/07/12 00:31:58;;;;;;;37.80;4.85;;;;;;;11.83;100.00;102312.00;1031105;28;20789;-82
2022/07/12 00:32:30;;;;;;;36.50;5.82;;;;;;;11.82;100.00;102314.84;1031336;28;20308;-82
2022/07/12 00:33:01;;;;;;;23.35;3.45;;;;;;;11.68;100.00;102316.50;1031432;28;20309;-82
2022/07/12 00:33:33;;;;;;;122.40;11.50;;;;;;;11.60;100.00;102311.28;1031309;28;20316;-82
2022/07/12 00:34:05;;;;;;;7.43;2.85;;;;;;;11.63;100.00;102306.38;1035265;28;20320;-82
2022/07/12 00:34:36;;;;;;;2.40;2.30;;;;;;;11.50;100.00;102308.88;1031590;28;20285;-82
2022/07/12 00:35:08;;;;;;;65.38;6.47;;;;;;;11.44;100.00;102315.78;1031140;28;20305;-82
2022/07/12 00:35:39;;;;;;;2.80;2.67;;;;;;;11.61;100.00;102311.09;1031314;28;20308;-82
2022/07/12 00:36:11;;;;;;;2.70;2.50;;;;;;;11.44;100.00;102313.13;1031285;28;20301;-81
2022/07/12 00:36:43;;;;;;;4.40;2.20;;;;;;;11.38;100.00;102313.88;1032398;28;20314;-82
2022/07/12 00:37:15;;;;;;;2.75;2.55;;;;;;;11.56;100.00;102310.00;1032755;28;20297;-82
2022/07/12 00:37:46;;;;;;;2.80;2.60;;;;;;;11.67;100.00;102305.00;1035398;28;20297;-82
2022/07/12 00:38:18;;;;;;;5.50;2.33;;;;;;;11.65;100.00;102309.69;1032526;28;20308;-83
2022/07/12 00:38:50;;;;;;;2.35;2.15;;;;;;;11.56;100.00;102305.47;1035271;28;20304;-82
2022/07/12 00:39:21;;;;;;;2.20;2.10;;;;;;;11.56;100.00;102304.66;1034858;28;20285;-82
2022/07/12 00:39:53;;;;;;;3.13;2.40;;;;;;;11.55;100.00;102301.16;1027150;28;20306;-82
2022/07/12 00:40:24;;;;;;;6.68;1.77;;;;;;;11.59;100.00;102314.94;1026864;28;20302;-82
2022/07/12 00:40:56;;;;;;;2.05;1.65;;;;;;;11.60;100.00;102305.94;1031495;28;20312;-81
2022/07/12 00:41:28;;;;;;;3.70;2.17;;;;;;;11.68;100.00;102303.16;1028107;28;20290;-82
2022/07/12 00:42:00;;;;;;;1.85;1.75;;;;;;;11.73;100.00;102312.25;1031419;28;20842;-82
2022/07/12 00:42:32;;;;;;;1.63;1.52;;;;;;;11.55;100.00;102306.50;1031451;28;20357;-83
2022/07/12 00:43:04;;;;;;;1.77;1.67;;;;;;;11.50;100.00;102305.38;1031582;28;20297;-83
2022/07/12 00:43:35;;;;;;;1.23;1.20;;;;;;;11.46;100.00;102305.75;1030979;28;20384;-82
2022/07/12 00:44:07;;;;;;;2.15;1.17;;;;;;;11.54;100.00;102312.03;1031164;28;20312;-82
2022/07/12 00:44:38;;;;;;;1.67;1.13;;;;;;;11.61;100.00;102307.59;1034107;28;20284;-82
2022/07/12 00:45:10;;;;;;;2.42;1.20;;;;;;;11.61;100.00;102311.09;1035169;28;20320;-82
2022/07/12 00:45:42;;;;;;;1.40;1.30;;;;;;;11.54;100.00;102315.50;1031091;28;20360;-83
2022/07/12 00:46:14;;;;;;;2.47;1.73;;;;;;;11.52;100.00;102311.38;1031568;28;20301;-82
2022/07/12 00:46:46;;;;;;;1.67;1.58;;;;;;;11.67;100.00;102306.84;1031305;28;20328;-82
2022/07/12 00:47:33;;;;;;;2.92;1.60;;;;;;;11.72;100.00;102315.09;1031203;28;20659;-83
2022/07/12 00:48:06;;;;;;;1.88;1.77;;;;;;;11.58;100.00;102313.31;1031250;28;20308;-83
2022/07/12 00:48:37;;;;;;;2.20;2.10;;;;;;;11.71;100.00;102313.44;1031354;28;20316;-83
2022/07/12 00:49:09;;;;;;;1.80;1.70;;;;;;;11.65;100.00;102315.03;1031681;28;20306;-83
2022/07/12 00:49:41;;;;;;;1.95;1.85;;;;;;;11.76;100.00;102316.38;1031958;28;20581;-83
2022/07/12 00:50:17;;;;;;;1.70;1.60;;;;;;;11.72;100.00;102312.44;1035137;28;20300;-83
2022/07/12 00:50:49;;;;;;;1.42;1.33;;;;;;;11.84;100.00;102310.16;1031257;28;20364;-83
2022/07/12 00:51:20;;;;;;;1.75;1.65;;;;;;;11.86;100.00;102314.28;1027061;28;20318;-82
2022/07/12 00:51:54;;;;;;;3.00;1.65;;;;;;;11.80;100.00;102319.56;1027362;28;20278;-82
2022/07/12 00:52:25;;;;;;;2.03;1.83;;;;;;;11.91;100.00;102311.88;1027982;28;20302;-83
2022/07/12 00:52:58;;;;;;;3.22;1.52;;;;;;;11.95;100.00;102310.47;1031527;28;20344;-83
2022/07/12 00:53:29;;;;;;;1.77;1.63;;;;;;;11.98;100.00;102318.09;1035189;28;20285;-83
2022/07/12 00:54:02;;;;;;;1.88;1.65;;;;;;;12.02;100.00;102311.34;1034523;28;20296;-82
2022/07/12 00:54:34;;;;;;;2.78;1.17;;;;;;;11.81;100.00;102313.19;1035370;28;20304;-83
2022/07/12 00:55:06;;;;;;;1.52;1.42;;;;;;;11.63;100.00;102305.56;1035367;28;20300;-83
2022/07/12 00:55:37;;;;;;;1.15;1.13;;;;;;;11.53;100.00;102318.38;1027341;28;20321;-82
2022/07/12 00:56:09;;;;;;;1.15;1.05;;;;;;;11.52;100.00;102319.38;1027315;28;20293;-83
2022/07/12 00:56:41;;;;;;;1.05;1.00;;;;;;;11.62;100.00;102309.25;1027241;28;20700;-82
2022/07/12 00:57:13;;;;;;;0.98;0.98;;;;;;;11.67;100.00;102312.16;1028018;28;20304;-81
2022/07/12 00:57:49;;;;;;;4.20;1.35;;;;;;;11.74;100.00;102318.41;1034681;28;20750;-82
2022/07/12 00:58:22;;;;;;;1.23;1.05;;;;;;;11.85;100.00;102309.13;1035305;28;20822;-83
2022/07/12 00:58:54;;;;;;;9.05;1.60;;;;;;;11.51;100.00;102312.41;1034710;28;20311;-82
2022/07/12 00:59:25;;;;;;;42.60;4.15;;;;;;;11.39;100.00;102317.34;1033580;28;20302;-82
2022/07/12 00:59:57;;;;;;;2.58;1.00;;;;;;;11.35;100.00;102311.56;1034953;28;20849;-82
2022/07/12 01:00:29;;;;;;;1.63;1.08;;;;;;;11.32;100.00;102306.59;1035142;28;20300;-83
2022/07/12 01:01:01;;;;;;;1.40;1.23;;;;;;;11.38;100.00;102313.88;1027398;28;20310;-83
2022/07/12 01:01:32;;;;;;;0.90;0.90;;;;;;;11.33;100.00;102315.44;1027186;28;20298;-80
2022/07/12 01:02:04;;;;;;;1.00;1.00;;;;;;;11.54;100.00;102307.50;1027270;28;20728;-83
2022/07/12 01:02:36;;;;;;;1.98;1.77;;;;;;;11.38;100.00;102302.38;1028078;28;20294;-83
2022/07/12 01:03:08;;;;;;;1.35;1.25;;;;;;;11.27;100.00;102306.34;1026866;28;20313;-83
2022/07/12 01:03:40;;;;;;;2.65;1.70;;;;;;;11.22;100.00;102314.03;1027675;28;20305;-82
2022/07/12 01:04:12;;;;;;;1.52;1.42;;;;;;;11.20;100.00;102307.25;1031074;28;20301;-82
2022/07/12 01:04:44;;;;;;;1.60;1.50;;;;;;;11.31;100.00;102302.28;1032155;28;20368;-83
2022/07/12 01:05:16;;;;;;;2.05;1.58;;;;;;;11.39;100.00;102310.19;1035056;28;20309;-82
2022/07/12 01:05:47;;;;;;;1.70;1.60;;;;;;;11.31;100.00;102301.47;1030857;28;20672;-83
2022/07/12 01:06:20;;;;;;;2.00;1.88;;;;;;;11.23;100.00;102309.53;1031455;28;20659;-83
2022/07/12 01:06:51;;;;;;;3.38;1.85;;;;;;;11.12;100.00;102308.16;1027206;28;20302;-82
2022/07/12 01:07:25;;;;;;;3.58;1.60;;;;;;;11.05;100.00;102307.25;1027551;28;20443;-82
2022/07/12 01:07:57;;;;;;;2.30;2.05;;;;;;;11.06;100.00;102303.56;1026824;28;20306;-83
2022/07/12 01:08:30;;;;;;;1.75;1.58;;;;;;;11.14;100.00;102308.81;1027546;28;20315;-82
2022/07/12 01:09:02;;;;;;;1.73;1.63;;;;;;;11.25;100.00;102308.38;1027186;28;20294;-83
2022/07/12 01:09:34;;;;;;;1.80;1.70;;;;;;;11.36;100.00;102307.88;1027978;28;20321;-83
2022/07/12 01:10:07;;;;;;;2.95;1.52;;;;;;;11.19;100.00;102309.09;1032002;28;20779;-82
2022/07/12 01:10:39;;;;;;;1.58;1.50;;;;;;;11.19;100.00;102303.75;1031136;28;20692;-82
2022/07/12 01:11:11;;;;;;;2.40;2.20;;;;;;;11.14;100.00;102301.63;1031069;28;20301;-82
2022/07/12 01:11:43;;;;;;;1.90;1.80;;;;;;;11.15;100.00;102305.97;1031524;28;20304;-82
2022/07/12 01:12:15;;;;;;;1.95;1.85;;;;;;;11.17;100.00;102295.09;1032037;28;20655;-82
2022/07/12 01:12:46;;;;;;;3.13;2.60;;;;;;;11.34;100.00;102301.91;1031269;28;20304;-82
2022/07/12 01:13:19;;;;;;;26.30;3.00;;;;;;;11.30;100.00;102289.97;1027126;28;20302;-82
2022/07/12 01:13:52;;;;;;;2.33;2.10;;;;;;;11.30;100.00;102300.63;1023289;29;20361;-82
2022/07/12 01:14:23;;;;;;;3.75;1.83;;;;;;;11.27;100.00;102305.50;1019997;29;20299;-82
2022/07/12 01:14:56;;;;;;;2.30;1.98;;;;;;;11.20;100.00;102302.72;1023486;28;20310;-83
2022/07/12 01:15:29;;;;;;;2.33;1.48;;;;;;;11.14;100.00;102306.16;1027545;28;20300;-83
2022/07/12 01:16:01;;;;;;;2.08;1.83;;;;;;;11.19;100.00;102308.25;1026096;28;20668;-83
2022/07/12 01:16:33;;;;;;;1.63;1.52;;;;;;;11.11;100.00;102306.50;1027928;28;20317;-83
2022/07/12 01:17:05;;;;;;;2.28;1.83;;;;;;;10.97;100.00;102310.84;1031058;28;20297;-82
2022/07/12 01:17:38;;;;;;;2.92;2.28;;;;;;;10.99;100.00;102308.81;1027930;28;20302;-82
2022/07/12 01:18:10;;;;;;;2.33;2.13;;;;;;;10.96;100.00;102309.19;1027165;28;20317;-83
2022/07/12 01:18:44;;;;;;;1.30;1.27;;;;;;;11.03;100.00;102311.94;1026917;28;20301;-82
2022/07/12 01:19:20;;;;;;;6.72;2.05;;;;;;;10.95;100.00;102306.69;1028108;28;20297;-82
2022/07/12 01:19:52;;;;;;;4.60;2.08;;;;;;;10.97;100.00;102310.03;1032861;28;20308;-83
2022/07/12 01:20:24;;;;;;;3.95;2.05;;;;;;;10.90;100.00;102309.06;1031450;28;20667;-82
2022/07/12 01:20:56;;;;;;;18.40;3.47;;;;;;;10.89;100.00;102312.75;1030840;28;20312;-82
2022/07/12 01:21:31;;;;;;;22.02;3.17;;;;;;;10.93;100.00;102314.03;1030657;28;20720;-82
2022/07/12 01:22:06;;;;;;;20.88;3.13;;;;;;;11.08;100.00;102318.38;1024202;28;20303;-82
2022/07/12 01:22:43;;;;;;;12.95;2.40;;;;;;;11.28;100.00;102307.16;1023402;28;20309;-82
2022/07/12 01:23:14;;;;;;;25.83;4.40;;;;;;;11.37;100.00;102312.22;1027325;28;20290;-82
2022/07/12 01:23:46;;;;;;;46.70;6.10;;;;;;;11.39;100.00;102312.84;1030114;28;20298;-81
2022/07/12 01:24:18;;;;;;;25.58;4.65;;;;;;;11.45;100.00;102313.94;1036463;28;20297;-82
2022/07/12 01:24:50;;;;;;;13.00;3.08;;;;;;;11.45;100.00;102308.59;1034551;28;20292;-82
2022/07/12 01:25:21;;;;;;;10.95;1.95;;;;;;;11.45;100.00;102309.44;1031073;28;20659;-82
2022/07/12 01:25:53;;;;;;;28.75;3.95;;;;;;;11.39;100.00;102315.53;1031100;28;20664;-82
2022/07/12 01:26:33;;;;;;;41.85;4.07;;;;;;;11.25;100.00;102307.53;1030980;28;20301;-82
2022/07/12 01:27:06;;;;;;;53.25;5.32;;;;;;;11.10;100.00;102319.03;1032999;28;20814;-83
2022/07/12 01:27:38;;;;;;;169.82;16.23;;;;;;;10.97;100.00;102318.84;1035555;28;20340;-82
2022/07/12 01:28:10;;;;;;;211.70;16.65;;;;;;;10.89;100.00;102312.75;1034870;28;20308;-81
2022/07/12 01:28:41;;;;;;;10.20;1.75;;;;;;;10.85;100.00;102317.63;1035392;28;20367;-82
2022/07/12 01:29:13;;;;;;;5.78;1.58;;;;;;;10.89;100.00;102318.06;1030812;28;20651;-82
2022/07/12 01:29:45;;;;;;;8.35;1.70;;;;;;;10.90;100.00;102319.72;1026930;28;20365;-82
2022/07/12 01:30:16;;;;;;;6.93;1.50;;;;;;;10.94;100.00;102315.69;1023326;28;20303;-82
2022/07/12 01:30:48;;;;;;;4.45;1.15;;;;;;;10.89;100.00;102323.41;1027405;28;20317;-82
2022/07/12 01:31:20;;;;;;;11.73;2.17;;;;;;;10.88;100.00;102327.09;1031295;28;20791;-83
2022/07/12 01:31:55;;;;;;;6.68;1.58;;;;;;;10.93;100.00;102324.69;1030959;28;20694;-82
2022/07/12 01:32:28;;;;;;;6.13;1.38;;;;;;;11.14;100.00;102324.81;1031138;28;20329;-82
2022/07/12 01:33:00;;;;;;;26.33;2.65;;;;;;;11.07;100.00;102326.56;1032548;28;20493;-83
2022/07/12 01:33:33;;;;;;;19.60;3.35;;;;;;;10.96;100.00;102322.53;1031117;28;20313;-82
2022/07/12 01:34:06;;;;;;;11.45;2.45;;;;;;;10.83;100.00;102330.31;1031244;28;20803;-82
2022/07/12 01:34:38;;;;;;;19.40;3.47;;;;;;;10.79;100.00;102327.16;1031444;28;20305;-82
2022/07/12 01:35:10;;;;;;;20.85;2.05;;;;;;;10.86;100.00;102327.28;1031280;28;20307;-83
2022/07/12 01:35:42;;;;;;;16.55;2.75;;;;;;;11.09;100.00;102330.69;1032281;28;20322;-83
2022/07/12 01:36:13;;;;;;;11.18;2.70;;;;;;;11.03;100.00;102333.28;1035047;28;20744;-82
2022/07/12 01:36:46;;;;;;;20.45;2.83;;;;;;;10.87;100.00;102330.75;1031099;28;20301;-82
2022/07/12 01:37:19;;;;;;;13.60;2.42;;;;;;;10.83;100.00;102331.13;1027183;28;20290;-83
2022/07/12 01:37:51;;;;;;;12.05;1.88;;;;;;;10.85;100.00;102336.28;1031064;28;20309;-83
2022/07/12 01:38:22;;;;;;;14.75;2.55;;;;;;;10.82;100.00;102332.13;1031681;28;20304;-82
2022/07/12 01:38:54;;;;;;;7.88;2.42;;;;;;;10.81;100.00;102346.47;1033840;28;20297;-82
2022/07/12 01:39:28;;;;;;;9.43;2.05;;;;;;;10.76;100.00;102337.38;1037651;28;20308;-82
2022/07/12 01:40:00;;;;;;;19.73;2.42;;;;;;;10.77;100.00;102339.84;1031117;28;20320;-82
2022/07/12 01:40:32;;;;;;;3.72;2.30;;;;;;;10.81;100.00;102341.16;1035508;28;20320;-82
2022/07/12 01:41:04;;;;;;;9.43;2.45;;;;;;;10.81;100.00;102341.16;1034989;28;20352;-82
2022/07/12 01:41:36;;;;;;;16.30;2.40;;;;;;;10.86;100.00;102350.44;1030986;28;20301;-82
2022/07/12 01:42:07;;;;;;;6.53;2.33;;;;;;;10.96;100.00;102340.34;1027448;28;20691;-82
2022/07/12 01:42:39;;;;;;;6.70;2.38;;;;;;;10.97;100.00;102337.50;1027003;28;20305;-81
2022/07/12 01:43:11;;;;;;;7.40;2.50;;;;;;;10.91;100.00;102345.38;1027341;28;20841;-82
2022/07/12 01:43:42;;;;;;;10.52;2.97;;;;;;;10.89;100.00;102339.41;1033575;28;20675;-82
2022/07/12 01:44:14;;;;;;;7.13;2.00;;;;;;;10.83;100.00;102352.44;1038706;28;20304;-82
2022/07/12 01:44:46;;;;;;;10.85;2.75;;;;;;;10.81;100.00;102343.81;1039144;28;20307;-81
2022/07/12 01:45:17;;;;;;;7.28;1.80;;;;;;;10.84;100.00;102347.94;1039038;28;20303;-83
2022/07/12 01:45:49;;;;;;;7.10;1.92;;;;;;;10.78;100.00;102352.16;1034850;28;20316;-81
2022/07/12 01:46:21;;;;;;;6.28;2.03;;;;;;;10.73;100.00;102351.88;1034019;28;20312;-82
2022/07/12 01:46:52;;;;;;;5.65;1.90;;;;;;;10.66;100.00;102345.59;1029890;28;20291;-82
2022/07/12 01:47:28;;;;;;;10.07;2.55;;;;;;;10.66;100.00;102350.09;1031119;28;20301;-83
2022/07/12 01:48:00;;;;;;;7.60;2.00;;;;;;;10.64;100.00;102344.13;1030856;28;20351;-82
2022/07/12 01:48:32;;;;;;;6.90;2.17;;;;;;;10.61;100.00;102347.97;1030741;28;20313;-82
2022/07/12 01:49:03;;;;;;;8.20;1.20;;;;;;;10.63;100.00;102345.97;1031669;28;20290;-82
2022/07/12 01:49:35;;;;;;;1.70;1.48;;;;;;;10.69;100.00;102344.44;1031107;28;20316;-82
2022/07/12 01:50:08;;;;;;;3.83;1.52;;;;;;;10.82;100.00;102344.63;1030881;28;20795;-82
2022/07/12 01:50:42;;;;;;;3.00;1.67;;;;;;;10.95;100.00;102344.00;1027350;28;20301;-82
2022/07/12 01:51:14;;;;;;;3.60;1.67;;;;;;;10.97;100.00;102342.84;1028055;28;20829;-82
2022/07/12 01:51:45;;;;;;;3.47;1.80;;;;;;;11.08;100.00;102345.03;1030940;28;20300;-82
2022/07/12 01:52:20;;;;;;;1.63;1.52;;;;;;;11.17;100.00;102347.63;1032263;28;20308;-83
2022/07/12 01:52:52;;;;;;;6.13;1.58;;;;;;;11.10;100.00;102347.53;1030245;28;20305;-83
2022/07/12 01:53:25;;;;;;;1.85;1.70;;;;;;;11.10;100.00;102350.19;1029149;28;20294;-82
2022/07/12 01:53:57;;;;;;;6.47;2.00;;;;;;;11.05;100.00;102355.25;1027076;28;20313;-82
2022/07/12 01:54:28;;;;;;;4.05;1.58;;;;;;;11.20;100.00;102353.41;1026854;28;20664;-82
2022/07/12 01:55:00;;;;;;;1.88;1.50;;;;;;;10.98;100.00;102357.00;1027961;28;20312;-82
2022/07/12 01:55:32;;;;;;;4.85;1.48;;;;;;;10.93;100.00;102357.50;1031810;28;20355;-83
2022/07/12 01:56:04;;;;;;;2.08;1.38;;;;;;;10.98;100.00;102365.00;1038953;28;20315;-82
2022/07/12 01:56:36;;;;;;;16.35;1.52;;;;;;;11.12;100.00;102365.00;1031353;28;20310;-82
2022/07/12 01:57:07;;;;;;;5.95;0.75;;;;;;;11.22;100.00;102362.06;1026692;28;20310;-82
2022/07/12 01:57:43;;;;;;;2.30;0.85;;;;;;;11.22;100.00;102367.38;1026518;28;20658;-81
2022/07/12 01:58:15;;;;;;;6.95;1.13;;;;;;;11.22;100.00;102362.06;1022939;28;20398;-82
2022/07/12 01:58:47;;;;;;;5.22;1.77;;;;;;;11.04;100.00;102358.94;1025493;28;20303;-82
2022/07/12 01:59:19;;;;;;;2.45;1.55;;;;;;;10.97;100.00;102368.66;1030811;28;20341;-83
2022/07/12 01:59:51;;;;;;;2.40;0.90;;;;;;;11.08;100.00;102371.72;1026986;28;20776;-82
2022/07/12 02:00:23;;;;;;;2.05;1.13;;;;;;;11.19;100.00;102367.75;1028054;28;20334;-82
2022/07/12 02:00:54;;;;;;;2.63;1.33;;;;;;;11.28;100.00;102372.03;1027171;28;20703;-82
2022/07/12 02:01:27;;;;;;;3.55;1.33;;;;;;;11.00;100.00;102376.31;1030290;28;20309;-82
2022/07/12 02:01:59;;;;;;;1.25;1.10;;;;;;;10.87;100.00;102368.06;1031315;28;20304;-82
2022/07/12 02:02:30;;;;;;;1.63;0.98;;;;;;;10.99;100.00;102371.97;1028039;28;20321;-82
2022/07/12 02:03:02;;;;;;;1.88;0.90;;;;;;;11.09;100.00;102367.22;1031197;28;20301;-82
2022/07/12 02:03:35;;;;;;;3.17;1.23;;;;;;;11.08;100.00;102370.88;1027170;28;20361;-82
2022/07/12 02:04:07;;;;;;;2.50;0.95;;;;;;;11.13;100.00;102368.50;1027411;28;20294;-81
2022/07/12 02:04:39;;;;;;;5.60;1.70;;;;;;;11.28;100.00;102361.34;1027912;28;20313;-82
2022/07/12 02:05:10;;;;;;;4.95;1.40;;;;;;;11.41;100.00;102368.69;1030835;28;20799;-82
2022/07/12 02:05:42;;;;;;;7.75;1.95;;;;;;;11.45;100.00;102368.13;1032065;28;20301;-82
2022/07/12 02:06:13;;;;;;;2.67;1.38;;;;;;;11.51;100.00;102371.09;1031657;28;20308;-82
2022/07/12 02:06:45;;;;;;;13.95;1.50;;;;;;;11.56;100.00;102364.19;1031623;28;20301;-82
2022/07/12 02:07:16;;;;;;;8.07;1.60;;;;;;;11.61;100.00;102366.31;1032160;28;20304;-83
2022/07/12 02:07:49;;;;;;;11.80;2.00;;;;;;;11.61;100.00;102360.97;1031872;28;20298;-81
2022/07/12 02:08:20;;;;;;;2.90;1.73;;;;;;;11.50;100.00;102364.09;1032289;28;20297;-82
2022/07/12 02:08:52;;;;;;;1.70;1.60;;;;;;;11.34;100.00;102367.78;1032041;28;20304;-82
2022/07/12 02:09:23;;;;;;;3.92;1.58;;;;;;;11.18;100.00;102368.78;1029495;28;20365;-82
2022/07/12 02:09:55;;;;;;;2.13;1.25;;;;;;;11.05;100.00;102360.59;1031773;28;20317;-82
2022/07/12 02:10:28;;;;;;;1.52;1.40;;;;;;;11.04;100.00;102365.09;1032428;28;20308;-82
2022/07/12 02:10:59;;;;;;;6.28;1.60;;;;;;;10.94;100.00;102364.50;1035957;28;20304;-83
2022/07/12 02:11:31;;;;;;;3.63;1.05;;;;;;;11.05;100.00;102366.75;1034748;28;20864;-82
2022/07/12 02:12:03;;;;;;;1.48;1.27;;;;;;;11.08;100.00;102365.56;1031942;28;20293;-83
2022/07/12 02:12:36;;;;;;;1.10;1.00;;;;;;;11.08;100.00;102361.03;1031672;28;20317;-82
2022/07/12 02:13:08;;;;;;;3.38;1.42;;;;;;;11.01;100.00;102359.28;1027932;28;20305;-82
2022/07/12 02:13:40;;;;;;;2.88;1.63;;;;;;;10.84;100.00;102364.78;1027637;28;20839;-82
2022/07/12 02:14:14;;;;;;;1.52;1.42;;;;;;;10.77;100.00;102363.00;1028090;28;20309;-82
2022/07/12 02:14:46;;;;;;;1.75;1.65;;;;;;;10.67;100.00;102355.25;1025131;28;20302;-82
2022/07/12 02:15:18;;;;;;;5.55;1.23;;;;;;;10.66;100.00;102361.59;1028476;28;20324;-82
2022/07/12 02:15:49;;;;;;;4.05;1.83;;;;;;;10.65;100.00;102357.25;1031655;28;20730;-82
2022/07/12 02:16:21;;;;;;;14.88;3.22;;;;;;;10.61;100.00;102353.31;1033123;28;20304;-82
2022/07/12 02:16:53;;;;;;;12.55;2.78;;;;;;;10.54;100.00;102355.03;1035002;28;20328;-82
2022/07/12 02:17:25;;;;;;;23.63;2.67;;;;;;;10.49;100.00;102354.75;1030740;28;20313;-82
2022/07/12 02:17:57;;;;;;;56.08;5.53;;;;;;;10.41;100.00;102352.97;1031924;28;20301;-82
2022/07/12 02:18:32;;;;;;;5.18;2.72;;;;;;;10.37;100.00;102351.66;1031671;28;20352;-82
2022/07/12 02:19:04;;;;;;;21.20;2.47;;;;;;;10.41;100.00;102352.16;1027884;28;20305;-83
2022/07/12 02:19:35;;;;;;;7.53;1.60;;;;;;;10.41;100.00;102357.47;1028624;28;20641;-82
2022/07/12 02:20:09;;;;;;;1.98;1.77;;;;;;;10.43;100.00;102356.31;1032182;28;20368;-82
2022/07/12 02:20:41;;;;;;;1.52;1.35;;;;;;;10.41;100.00;102349.50;1032362;28;20357;-82
2022/07/12 02:21:12;;;;;;;1.65;1.55;;;;;;;10.43;100.00;102350.16;1035690;28;20837;-82
2022/07/12 02:21:44;;;;;;;2.42;1.48;;;;;;;10.39;100.00;102349.63;1031725;28;20698;-82
2022/07/12 02:22:16;;;;;;;2.38;1.77;;;;;;;10.47;100.00;102346.09;1027853;28;20309;-82
2022/07/12 02:22:47;;;;;;;5.13;2.30;;;;;;;10.39;100.00;102346.16;1027691;28;20302;-82
2022/07/12 02:23:22;;;;;;;6.05;2.25;;;;;;;10.40;100.00;102345.13;1024776;28;20342;-82
2022/07/12 02:23:54;;;;;;;11.63;2.38;;;;;;;10.46;100.00;102347.94;1028764;28;20290;-81
2022/07/12 02:24:28;;;;;;;11.05;2.75;;;;;;;10.55;100.00;102348.69;1031694;28;20352;-82
2022/07/12 02:25:00;;;;;;;15.80;2.75;;;;;;;10.48;100.00;102342.44;1030795;28;20316;-82
2022/07/12 02:25:32;;;;;;;8.85;2.55;;;;;;;10.40;100.00;102345.97;1032480;28;20660;-82
2022/07/12 02:26:03;;;;;;;3.10;2.65;;;;;;;10.42;100.00;102340.50;1031573;28;20293;-82
2022/07/12 02:26:36;;;;;;;8.23;3.70;;;;;;;10.43;100.00;102339.50;1031423;28;20313;-82
2022/07/12 02:27:08;;;;;;;7.40;2.40;;;;;;;10.60;100.00;102341.00;1031701;28;20308;-82